Portada
METAR-TAF:

METAR-TAF

Aeroports :

Burbank, Califòrnia, Estats Units d'Amèrica

latitud: 34-11-59N, longitud: 118-21-53W, altitud: 236 m

Observació

L'informe es va fer fa 1 hora i 8 minuts, a les 06:53 UTC
Vent calma
Temperatura 24°C
Humitat 50%
Pressió 1013 hPa
Visibilitat: 16.1 km
Cel clar

METAR: KBUR 230653Z 00000KT 10SM CLR 24/13 A2990 RMK AO2 SLP110 T02390133

Hora: 01:01 (08:01 UTC)

Pronòstic

L'informe es va fer fa 2 hores i 16 minuts, a les 05:45 UTC
Pronòstic vàlid del 23 a les 06 UTC al 24 a les 06 UTC
Vent 3 kt amb direcció variable
Visibilitat: 10 km
Núvols disperses a una alçada de 15000 ft
A partir de les 23 a les 1900 UTC
Vent 8 kt del Sud
Visibilitat: 10 km
Cel ennuvolat a una alçada de 10000 ft
A partir de les 24 a les 0500 UTC
Vent 3 kt amb direcció variable
Visibilitat: 10 km
Cel ennuvolat a una alçada de 10000 ft

TAF: KBUR 230545Z 2306/2406 VRB03KT P6SM SCT150 FM231900 17008KT P6SM BKN100 FM240500 VRB03KT P6SM BKN100

Observacions i pronòstics meteorològics de més de 4000 aeroports (METAR i TAF).

Les estacions disponibles són els punts grocs i vermells al mapa.

Posi el ratolí al punt desitjat per veure el nom de l'estació.

Feu clic per veure les observacions i els pronòstics meteorològics.

Per canviar el mapa: feu clic els botons verds amb una creu de color negre per apropar; al botó verd amb un guió per allunyar la imatge; o en les fletxes verdes per a mapes adjacents.


METAR-TAF: